Moenchengladbach, Germany

8:48 PM CET on January 27, 2015 (GMT +0100)
Willich, NRW Germany | Change Station
CLOSE
Current Station
Personal Weather Station
Location: Willich, NORDRHEIN-WESTFALEN
Elevation: 118 ft
Nearby Weather Stations

Elev 118 ft 51.25 °N, 6.47 °E | Updated 2 minutes ago

Mostly Cloudy
Mostly Cloudy
39.6 °F
Feels Like 37 °F
N
3.7
Wind Variable Wind from West
Gusts 6.5 mph

Today
High -- | Low -- °F
--% Chance of Precip.
Yesterday
High -- | Low -- °F
Precip. -- in
8:19 AM 5:14 PM
First Quarter, 57% visible
Pressure 30.18 in
Visibility 6.2 miles
Clouds Few 1800 ft
Mostly Cloudy 2700 ft
Mostly Cloudy 8500 ft
Windchill 37 °F
Dew Point 38 °F
Humidity 96%
Rainfall 0.17 in
Snow Depth Not available.
UV 0 out of 12
Pollen Not available.
Air Quality Not available.
Flu Activity Not available.
METAR EDDL 271920Z 26006KT 9999 FEW018 BKN027 BKN085 05/03 Q1022 NOSIG

More Conditions Fewer Conditions

Pressure 30.18 in
Visibility 6.2 miles
Clouds Few 1800 ft
Mostly Cloudy 2700 ft
Mostly Cloudy 8500 ft
Windchill 37 °F
Dew Point 38 °F
Humidity 96%
Rainfall 0.17 in
Snow Depth Not available.
UV 0 out of 12
Pollen Not available.
Air Quality Not available.
Flu Activity Not available.
METAR EDDL 271920Z 26006KT 9999 FEW018 BKN027 BKN085 05/03 Q1022 NOSIG

More Conditions Fewer Conditions

10-Day Weather Forecast

Almanac

Astronomy

Jan. 27, 2015 Rise Set
Actual Time
Civil Twilight
Nautical Twilight
Astronomical Twilight
Moon
Length of Visible Light
Length of Day
Tomorrow will be .
, % of the Moon is Illuminated

Today's Extremes

Country Highs Country Lows

Community

WunderPhotos

Upload Photos

1,790,837 photos uploaded!

WunderBlogs® & News

Nearby

Air Quality

  Air Quality AQ Index Pollutant
Not available.

Snow Depth

Station Depth Elevation

Earthquake Activity

City Distance Mag. Time & Date
Minimum magnitude displayed is 2.5.

Coastal Water Temperatures

Place Temperature

Nearby Weather Stations